createdAt,value
2022-09-10T00:01:22.182Z,8.90
2022-09-10T00:03:50.291Z,7.00
2022-09-10T00:06:19.291Z,7.72
2022-09-10T00:08:47.313Z,7.30
2022-09-10T00:11:15.357Z,7.13
2022-09-10T00:13:43.855Z,7.57
2022-09-10T00:16:13.465Z,8.18
2022-09-10T00:18:41.848Z,7.97
2022-09-10T00:21:12.837Z,7.60
2022-09-10T00:23:40.673Z,7.75
2022-09-10T00:26:21.974Z,8.20
2022-09-10T00:28:51.687Z,8.43
2022-09-10T00:31:19.982Z,8.43
2022-09-10T00:33:48.075Z,8.48
2022-09-10T00:36:24.476Z,7.82
2022-09-10T00:38:55.163Z,7.22
2022-09-10T00:41:27.634Z,7.85
2022-09-10T00:44:03.917Z,8.10
2022-09-10T00:46:59.482Z,8.02
2022-09-10T00:49:35.100Z,8.55
2022-09-10T00:52:03.018Z,7.50
2022-09-10T00:54:34.036Z,8.55
2022-09-10T00:57:06.528Z,8.35
2022-09-10T00:59:34.973Z,7.43
2022-09-10T01:02:02.878Z,7.47
2022-09-10T01:04:31.602Z,7.03
2022-09-10T01:07:00.750Z,7.22
2022-09-10T01:09:29.547Z,7.88
2022-09-10T01:12:06.278Z,7.43
2022-09-10T01:14:58.276Z,7.60
2022-09-10T01:17:45.249Z,8.30
2022-09-10T01:20:48.479Z,9.65
2022-09-10T01:23:34.223Z,7.70
2022-09-10T01:26:25.524Z,7.78
2022-09-10T01:29:10.528Z,6.85
2022-09-10T01:31:54.429Z,6.80
2022-09-10T01:34:34.876Z,6.38
2022-09-10T01:37:11.551Z,5.60
2022-09-10T01:39:39.841Z,6.57
2022-09-10T01:42:07.983Z,5.18
2022-09-10T01:44:47.871Z,5.72
2022-09-10T01:47:43.874Z,5.25
2022-09-10T01:50:30.343Z,5.88
2022-09-10T01:53:14.889Z,5.93
2022-09-10T01:56:10.213Z,6.00
2022-09-10T01:58:45.424Z,6.90
2022-09-10T02:01:30.022Z,6.03
2022-09-10T02:04:01.744Z,6.03
2022-09-10T02:06:33.373Z,5.55
2022-09-10T02:09:03.003Z,5.32
2022-09-10T02:11:43.540Z,5.60
2022-09-10T02:14:14.657Z,5.63
2022-09-10T02:17:08.275Z,5.32
2022-09-10T02:19:35.603Z,5.63
2022-09-10T02:22:05.007Z,5.55
2022-09-10T02:24:32.437Z,6.35
2022-09-10T02:27:00.982Z,5.47
2022-09-10T02:29:28.976Z,5.25
2022-09-10T02:31:57.650Z,5.95
2022-09-10T02:34:24.889Z,6.65
2022-09-10T02:36:54.491Z,6.05
2022-09-10T02:39:24.068Z,6.13
2022-09-10T02:41:52.768Z,5.90
2022-09-10T02:44:21.320Z,5.75
2022-09-10T02:46:48.696Z,5.53
2022-09-10T02:49:15.980Z,6.60
2022-09-10T02:51:44.883Z,5.95
2022-09-10T02:54:13.324Z,5.55
2022-09-10T02:56:40.831Z,6.53
2022-09-10T02:59:08.469Z,5.88
2022-09-10T03:01:40.596Z,5.82
2022-09-10T03:04:10.063Z,5.43
2022-09-10T03:06:39.425Z,5.85
2022-09-10T03:09:06.818Z,5.72
2022-09-10T03:11:35.104Z,6.78
2022-09-10T03:14:02.604Z,6.25
2022-09-10T03:16:31.878Z,5.95
2022-09-10T03:19:03.049Z,5.72
2022-09-10T03:21:35.580Z,5.68
2022-09-10T03:24:10.320Z,5.97
2022-09-10T03:26:38.468Z,6.25
2022-09-10T03:29:05.814Z,5.80
2022-09-10T03:31:40.116Z,6.65
2022-09-10T03:34:08.906Z,5.85
2022-09-10T03:36:37.494Z,6.20
2022-09-10T03:39:08.280Z,6.15
2022-09-10T03:41:37.623Z,5.50
2022-09-10T03:44:05.800Z,5.50
2022-09-10T03:46:33.324Z,5.57
2022-09-10T03:49:02.693Z,5.78
2022-09-10T03:51:34.147Z,5.97
2022-09-10T03:54:03.088Z,5.68
2022-09-10T03:56:32.835Z,6.75
2022-09-10T03:59:00.560Z,6.15
2022-09-10T04:01:29.220Z,5.10
2022-09-10T04:03:58.280Z,5.72
2022-09-10T04:06:28.375Z,4.90
2022-09-10T04:08:56.116Z,5.47
2022-09-10T04:11:27.856Z,5.47
2022-09-10T04:13:57.032Z,5.53
2022-09-10T04:16:25.297Z,4.82
2022-09-10T04:18:52.650Z,5.32
2022-09-10T04:21:20.781Z,4.93
2022-09-10T04:23:54.692Z,5.35
2022-09-10T04:26:23.005Z,5.20
2022-09-10T04:28:51.487Z,5.28
2022-09-10T04:31:19.280Z,5.43
2022-09-10T04:33:47.207Z,5.30
2022-09-10T04:36:17.439Z,5.45
2022-09-10T04:38:45.381Z,5.10
2022-09-10T04:41:15.819Z,5.22
2022-09-10T04:43:43.905Z,5.35
2022-09-10T04:46:11.453Z,5.75
2022-09-10T04:48:41.867Z,6.10
2022-09-10T04:51:17.799Z,5.50
2022-09-10T04:53:51.837Z,6.15
2022-09-10T04:56:22.312Z,6.28
2022-09-10T04:58:52.201Z,6.55
2022-09-10T05:01:20.095Z,6.53
2022-09-10T05:03:51.031Z,6.63
2022-09-10T05:06:19.517Z,5.90
2022-09-10T05:08:48.412Z,6.40
2022-09-10T05:11:15.740Z,6.05
2022-09-10T05:13:43.765Z,6.35
2022-09-10T05:16:12.758Z,6.18
2022-09-10T05:18:40.785Z,6.18
2022-09-10T05:21:09.546Z,6.82
2022-09-10T05:23:36.860Z,5.95
2022-09-10T05:26:04.205Z,5.43
2022-09-10T05:28:31.641Z,5.93
2022-09-10T05:30:59.092Z,5.80
2022-09-10T05:33:28.618Z,6.20
2022-09-10T05:35:56.011Z,5.45
2022-09-10T05:38:24.993Z,5.70
2022-09-10T05:40:52.967Z,5.50
2022-09-10T05:43:21.644Z,6.10
2022-09-10T05:45:49.238Z,5.90
2022-09-10T05:48:17.971Z,5.70
2022-09-10T05:50:46.301Z,5.72
2022-09-10T05:53:14.320Z,5.82
2022-09-10T05:55:41.617Z,5.90
2022-09-10T05:58:09.458Z,5.95
2022-09-10T06:00:38.868Z,5.68
2022-09-10T06:03:06.552Z,5.55
2022-09-10T06:05:39.689Z,5.97
2022-09-10T06:08:08.901Z,6.35
2022-09-10T06:10:41.310Z,5.68
2022-09-10T06:13:09.221Z,6.40
2022-09-10T06:15:38.136Z,5.40
2022-09-10T06:18:05.758Z,6.15
2022-09-10T06:20:33.363Z,5.75
2022-09-10T06:23:01.346Z,5.90
2022-09-10T06:25:29.158Z,5.70
2022-09-10T06:27:57.846Z,5.95
2022-09-10T06:30:26.486Z,5.32
2022-09-10T06:32:54.373Z,5.40
2022-09-10T06:35:21.901Z,5.10
2022-09-10T06:37:50.667Z,5.45
2022-09-10T06:40:18.882Z,5.15
2022-09-10T06:42:46.247Z,4.70
2022-09-10T06:45:13.793Z,5.32
2022-09-10T06:48:37.658Z,6.40
2022-09-10T06:51:02.144Z,5.25
2022-09-10T06:53:34.446Z,5.32
2022-09-10T06:56:06.152Z,5.30
2022-09-10T06:58:35.506Z,5.28
2022-09-10T07:01:14.622Z,5.40
2022-09-10T07:03:46.907Z,4.82
2022-09-10T07:06:16.835Z,5.13
2022-09-10T07:08:47.342Z,5.20
2022-09-10T07:11:18.803Z,4.97
2022-09-10T07:13:52.231Z,5.45
2022-09-10T07:16:23.527Z,4.88
2022-09-10T07:18:58.723Z,5.07
2022-09-10T07:21:45.958Z,5.28
2022-09-10T07:24:15.434Z,5.68
2022-09-10T07:27:06.149Z,5.07
2022-09-10T07:29:35.582Z,4.78
2022-09-10T07:32:04.724Z,5.00
2022-09-10T07:34:34.808Z,4.80
2022-09-10T07:37:03.978Z,4.55
2022-09-10T07:39:32.334Z,4.60
2022-09-10T07:42:00.559Z,5.45
2022-09-10T07:44:30.558Z,5.35
2022-09-10T07:47:03.784Z,4.68
2022-09-10T07:49:32.941Z,4.82
2022-09-10T07:52:00.693Z,4.70
2022-09-10T07:54:36.600Z,5.15
2022-09-10T07:57:05.618Z,4.80
2022-09-10T07:59:34.549Z,5.47
2022-09-10T08:02:04.012Z,5.05
2022-09-10T08:04:36.548Z,5.25
2022-09-10T08:07:07.633Z,4.60
2022-09-10T08:09:37.970Z,4.93
2022-09-10T08:12:10.688Z,5.22
2022-09-10T08:14:38.351Z,4.28
2022-09-10T08:17:06.348Z,4.60
2022-09-10T08:19:39.735Z,4.78
2022-09-10T08:22:11.456Z,4.57
2022-09-10T08:24:45.093Z,4.18
2022-09-10T08:27:12.479Z,4.63
2022-09-10T08:29:40.011Z,5.10
2022-09-10T08:32:13.519Z,4.47
2022-09-10T08:34:42.220Z,5.80
2022-09-10T08:37:12.702Z,7.88
2022-09-10T08:39:41.451Z,5.40
2022-09-10T08:42:31.146Z,3.70
2022-09-10T08:45:05.430Z,4.38
2022-09-10T08:47:53.738Z,3.95
2022-09-10T08:51:03.200Z,4.13
2022-09-10T08:53:58.236Z,4.07
2022-09-10T08:56:28.570Z,4.27
2022-09-10T08:59:07.029Z,3.88
2022-09-10T09:01:43.743Z,3.95
2022-09-10T09:04:51.304Z,3.55
2022-09-10T09:07:21.069Z,3.72
2022-09-10T09:09:54.723Z,4.38
2022-09-10T09:12:53.543Z,3.78
2022-09-10T09:15:43.499Z,4.03
2022-09-10T09:18:25.746Z,3.80
2022-09-10T09:21:01.164Z,3.60
2022-09-10T09:24:14.329Z,3.88
2022-09-10T09:26:50.321Z,4.22
2022-09-10T09:29:29.030Z,4.05
2022-09-10T09:32:03.875Z,3.97
2022-09-10T09:34:45.842Z,4.97
2022-09-10T09:37:21.684Z,4.15
2022-09-10T09:40:06.728Z,4.40
2022-09-10T09:42:54.039Z,3.95
2022-09-10T09:45:35.341Z,3.42
2022-09-10T09:48:04.919Z,3.65
2022-09-10T09:50:39.114Z,3.95
2022-09-10T09:53:06.452Z,4.18
2022-09-10T09:55:44.915Z,4.40
2022-09-10T09:58:21.446Z,3.55
2022-09-10T10:01:03.977Z,3.92
2022-09-10T10:03:37.938Z,4.22
2022-09-10T10:06:08.701Z,3.75
2022-09-10T10:08:58.324Z,3.85
2022-09-10T10:11:51.539Z,4.93
2022-09-10T10:14:24.402Z,4.55
2022-09-10T10:16:57.298Z,5.43
2022-09-10T10:19:37.118Z,4.28
2022-09-10T10:22:19.924Z,4.05
2022-09-10T10:24:50.013Z,4.45
2022-09-10T10:27:35.517Z,4.80
2022-09-10T10:30:18.533Z,4.35
2022-09-10T10:32:58.217Z,5.00
2022-09-10T10:35:34.500Z,4.55
2022-09-10T10:38:27.516Z,5.88
2022-09-10T10:41:33.548Z,4.10
2022-09-10T10:44:44.564Z,4.53
2022-09-10T10:47:24.002Z,4.85
2022-09-10T10:50:10.137Z,4.50
2022-09-10T10:53:04.094Z,5.18
2022-09-10T10:55:38.445Z,4.63
2022-09-10T10:58:40.753Z,4.30
2022-09-10T11:01:18.617Z,4.85
2022-09-10T11:04:08.152Z,4.95
2022-09-10T11:06:44.628Z,4.55
2022-09-10T11:09:39.477Z,4.35
2022-09-10T11:12:18.391Z,4.50
2022-09-10T11:14:59.232Z,5.63
2022-09-10T11:17:53.567Z,4.78
2022-09-10T11:20:30.285Z,4.43
2022-09-10T11:23:07.388Z,5.38
2022-09-10T11:26:00.796Z,4.18
2022-09-10T11:28:38.988Z,3.85
2022-09-10T11:31:18.787Z,4.10
2022-09-10T11:34:00.456Z,3.83
2022-09-10T11:36:42.412Z,3.65
2022-09-10T11:39:35.818Z,3.17
2022-09-10T11:42:17.040Z,3.28
2022-09-10T11:44:47.918Z,3.17
2022-09-10T11:47:24.961Z,3.60
2022-09-10T11:50:22.477Z,4.22
2022-09-10T11:52:50.958Z,3.70
2022-09-10T11:55:18.579Z,3.92
2022-09-10T11:58:13.878Z,3.50
2022-09-10T12:01:15.044Z,3.47
2022-09-10T12:04:21.207Z,3.88
2022-09-10T12:07:28.002Z,4.07
2022-09-10T12:10:02.036Z,4.40
2022-09-10T12:12:51.488Z,4.60
2022-09-10T12:15:26.211Z,4.45
2022-09-10T12:18:05.379Z,4.88
2022-09-10T12:20:42.546Z,5.32
2022-09-10T12:23:19.399Z,5.75
2022-09-10T12:26:01.167Z,6.13
2022-09-10T12:28:46.092Z,6.43
2022-09-10T12:31:21.249Z,6.03
2022-09-10T12:33:55.010Z,5.72
2022-09-10T12:36:37.749Z,5.75
2022-09-10T12:39:26.232Z,6.65
2022-09-10T12:41:54.135Z,6.35
2022-09-10T12:44:37.051Z,6.32
2022-09-10T12:47:17.125Z,5.88
2022-09-10T12:49:56.050Z,5.43
2022-09-10T12:52:37.329Z,4.90
2022-09-10T12:55:13.629Z,5.43
2022-09-10T12:58:07.383Z,5.25
2022-09-10T13:00:54.889Z,5.22
2022-09-10T13:03:25.975Z,4.78
2022-09-10T13:05:56.912Z,4.63
2022-09-10T13:08:37.678Z,5.47
2022-09-10T13:11:20.329Z,4.75
2022-09-10T13:14:00.877Z,4.88
2022-09-10T13:16:28.754Z,4.40
2022-09-10T13:19:18.220Z,4.18
2022-09-10T13:21:52.634Z,4.30
2022-09-10T13:24:36.286Z,4.03
2022-09-10T13:27:26.693Z,4.40
2022-09-10T13:30:20.779Z,4.10
2022-09-10T13:32:52.509Z,4.05
2022-09-10T13:35:26.595Z,3.47
2022-09-10T13:38:03.704Z,4.07
2022-09-10T13:40:35.204Z,4.07
2022-09-10T13:43:23.445Z,3.63
2022-09-10T13:45:57.489Z,3.83
2022-09-10T13:48:30.983Z,3.50
2022-09-10T13:51:06.869Z,3.75
2022-09-10T13:53:36.305Z,3.78
2022-09-10T13:56:14.470Z,3.72
2022-09-10T13:58:50.075Z,3.78
2022-09-10T14:01:18.690Z,3.80
2022-09-10T14:03:49.943Z,4.10
2022-09-10T14:06:25.488Z,3.97
2022-09-10T14:08:58.064Z,4.43
2022-09-10T14:11:33.757Z,3.95
2022-09-10T14:14:17.008Z,3.50
2022-09-10T14:16:47.370Z,3.90
2022-09-10T14:19:20.351Z,4.25
2022-09-10T14:21:50.658Z,3.80
2022-09-10T14:24:30.874Z,3.67
2022-09-10T14:27:18.864Z,3.75
2022-09-10T14:29:47.419Z,3.85
2022-09-10T14:32:36.884Z,3.67
2022-09-10T14:35:36.305Z,3.55
2022-09-10T14:38:09.469Z,3.35
2022-09-10T14:40:38.265Z,3.33
2022-09-10T14:43:16.730Z,3.95
2022-09-10T14:45:48.070Z,3.10
2022-09-10T14:49:02.105Z,3.97
2022-09-10T14:51:29.424Z,3.67
2022-09-10T14:53:59.020Z,3.35
2022-09-10T14:56:33.745Z,3.20
2022-09-10T14:59:15.035Z,3.33
2022-09-10T15:01:44.948Z,3.88
2022-09-10T15:04:18.487Z,3.00
2022-09-10T15:06:45.955Z,3.80
2022-09-10T15:09:15.207Z,3.00
2022-09-10T15:11:54.997Z,3.33
2022-09-10T15:14:23.467Z,3.03
2022-09-10T15:16:52.464Z,3.30
2022-09-10T15:19:20.308Z,3.03
2022-09-10T15:21:48.331Z,3.00
2022-09-10T15:24:20.115Z,3.20
2022-09-10T15:26:48.674Z,2.78
2022-09-10T15:29:18.391Z,3.63
2022-09-10T15:31:47.330Z,3.67
2022-09-10T15:34:15.827Z,3.42
2022-09-10T15:36:44.527Z,3.65
2022-09-10T15:39:13.471Z,3.70
2022-09-10T15:41:44.179Z,3.28
2022-09-10T15:44:18.696Z,2.78
2022-09-10T15:46:47.452Z,3.08
2022-09-10T15:49:15.806Z,3.85
2022-09-10T15:51:44.292Z,3.33
2022-09-10T15:54:18.160Z,3.35
2022-09-10T15:56:48.449Z,3.25
2022-09-10T15:59:16.955Z,3.35
2022-09-10T16:01:45.186Z,3.42
2022-09-10T16:04:16.293Z,3.55
2022-09-10T16:06:48.717Z,2.70
2022-09-10T16:09:21.106Z,3.10
2022-09-10T16:11:48.905Z,3.10
2022-09-10T16:14:18.737Z,3.40
2022-09-10T16:16:49.955Z,3.17
2022-09-10T16:19:17.873Z,3.35
2022-09-10T16:21:48.695Z,3.15
2022-09-10T16:24:16.178Z,3.13
2022-09-10T16:26:48.236Z,3.10
2022-09-10T16:29:19.839Z,3.17
2022-09-10T16:31:47.546Z,3.08
2022-09-10T16:34:20.012Z,3.17
2022-09-10T16:36:51.762Z,3.75
2022-09-10T16:39:20.359Z,3.60
2022-09-10T16:41:49.419Z,3.72
2022-09-10T16:44:18.412Z,3.70
2022-09-10T16:46:47.285Z,3.80
2022-09-10T16:49:18.505Z,3.67
2022-09-10T16:51:47.955Z,3.42
2022-09-10T16:54:19.637Z,3.05
2022-09-10T16:56:48.528Z,3.22
2022-09-10T16:59:19.809Z,3.58
2022-09-10T17:01:48.672Z,3.42
2022-09-10T17:04:22.346Z,3.85
2022-09-10T17:06:51.447Z,4.13
2022-09-10T17:09:18.824Z,3.92
2022-09-10T17:11:46.326Z,4.45
2022-09-10T17:14:13.645Z,3.95
2022-09-10T17:16:42.476Z,4.10
2022-09-10T17:19:15.460Z,4.97
2022-09-10T17:21:51.470Z,4.70
2022-09-10T17:24:21.220Z,4.75
2022-09-10T17:26:49.974Z,4.70
2022-09-10T17:29:23.039Z,5.03
2022-09-10T17:31:52.374Z,4.82
2022-09-10T17:34:24.725Z,5.20
2022-09-10T17:36:52.516Z,6.47
2022-09-10T17:39:20.090Z,4.50
2022-09-10T17:41:48.100Z,3.90
2022-09-10T17:44:16.743Z,4.20
2022-09-10T17:46:45.282Z,4.28
2022-09-10T17:49:16.040Z,4.40
2022-09-10T17:51:44.104Z,4.60
2022-09-10T17:54:13.376Z,5.10
2022-09-10T17:56:42.025Z,5.13
2022-09-10T17:59:13.169Z,4.43
2022-09-10T18:01:41.822Z,5.03
2022-09-10T18:04:14.867Z,5.72
2022-09-10T18:06:42.295Z,6.13
2022-09-10T18:09:11.504Z,6.70
2022-09-10T18:11:40.704Z,6.45
2022-09-10T18:14:08.660Z,7.43
2022-09-10T18:16:36.705Z,7.63
2022-09-10T18:19:13.926Z,8.35
2022-09-10T18:21:45.715Z,8.07
2022-09-10T18:24:21.202Z,8.93
2022-09-10T18:26:50.135Z,8.82
2022-09-10T18:29:30.247Z,9.55
2022-09-10T18:32:00.880Z,9.90
2022-09-10T18:34:30.386Z,9.55
2022-09-10T18:37:00.774Z,10.48
2022-09-10T18:39:31.349Z,10.02
2022-09-10T18:42:00.858Z,10.82
2022-09-10T18:44:33.447Z,10.82
2022-09-10T18:47:01.047Z,12.10
2022-09-10T18:49:28.478Z,11.30
2022-09-10T18:51:57.039Z,11.50
2022-09-10T18:54:28.974Z,12.13
2022-09-10T18:56:57.534Z,11.40
2022-09-10T18:59:25.863Z,10.88
2022-09-10T19:01:56.183Z,11.40
2022-09-10T19:04:26.986Z,11.57
2022-09-10T19:06:55.446Z,10.52
2022-09-10T19:09:31.215Z,10.73
2022-09-10T19:12:00.669Z,11.00
2022-09-10T19:14:31.191Z,9.73
2022-09-10T19:17:00.689Z,11.48
2022-09-10T19:19:34.121Z,10.05
2022-09-10T19:22:04.021Z,10.93
2022-09-10T19:27:19.361Z,9.57
2022-09-10T19:29:47.665Z,10.05
2022-09-10T19:32:15.374Z,8.50
2022-09-10T19:34:44.481Z,9.20
2022-09-10T19:37:13.124Z,10.10
2022-09-10T19:39:40.595Z,9.77
2022-09-10T19:42:08.273Z,9.63
2022-09-10T19:44:35.659Z,10.25
2022-09-10T19:47:04.251Z,9.50
2022-09-10T19:49:32.077Z,9.63
2022-09-10T19:52:00.406Z,10.38
2022-09-10T19:54:28.900Z,8.25
2022-09-10T19:56:56.621Z,8.05
2022-09-10T19:59:24.002Z,5.97
2022-09-10T20:01:51.435Z,6.05
2022-09-10T20:04:19.227Z,6.03
2022-09-10T20:06:47.832Z,6.45
2022-09-10T20:09:15.177Z,5.85
2022-09-10T20:11:42.562Z,5.60
2022-09-10T20:14:14.434Z,5.18
2022-09-10T20:16:44.175Z,5.78
2022-09-10T20:19:14.708Z,5.57
2022-09-10T20:21:42.561Z,5.38
2022-09-10T20:24:11.415Z,6.35
2022-09-10T20:26:44.006Z,5.82
2022-09-10T20:29:14.115Z,5.75
2022-09-10T20:31:43.462Z,5.40
2022-09-10T20:34:17.048Z,5.40
2022-09-10T20:36:44.502Z,4.85
2022-09-10T20:39:17.223Z,4.55
2022-09-10T20:41:45.121Z,4.65
2022-09-10T20:44:16.148Z,4.20
2022-09-10T20:46:44.243Z,4.95
2022-09-10T20:49:14.184Z,4.43
2022-09-10T20:51:45.018Z,4.55
2022-09-10T20:54:15.091Z,4.32
2022-09-10T20:56:44.429Z,4.50
2022-09-10T20:59:14.834Z,4.55
2022-09-10T21:01:44.406Z,4.85
2022-09-10T21:04:13.172Z,4.97
2022-09-10T21:06:41.006Z,4.25
2022-09-10T21:09:08.758Z,4.75
2022-09-10T21:11:36.432Z,3.97
2022-09-10T21:14:05.807Z,4.53
2022-09-10T21:16:35.713Z,4.38
2022-09-10T21:19:08.163Z,3.95
2022-09-10T21:21:36.669Z,3.58
2022-09-10T21:24:09.135Z,3.42
2022-09-10T21:26:39.566Z,4.05
2022-09-10T21:29:11.038Z,3.88
2022-09-10T21:31:39.014Z,4.15
2022-09-10T21:34:06.616Z,4.60
2022-09-10T21:36:36.041Z,3.95
2022-09-10T21:39:06.925Z,6.00
2022-09-10T21:41:37.122Z,4.22
2022-09-10T21:44:08.260Z,4.32
2022-09-10T21:46:36.945Z,5.80
2022-09-10T21:49:05.224Z,5.90
2022-09-10T21:51:32.884Z,6.63
2022-09-10T21:54:00.402Z,6.68
2022-09-10T21:56:29.912Z,6.65
2022-09-10T21:58:59.908Z,6.00
2022-09-10T22:01:33.024Z,6.28
2022-09-10T22:04:01.191Z,5.82
2022-09-10T22:06:30.981Z,6.00
2022-09-10T22:09:01.456Z,6.97
2022-09-10T22:11:37.915Z,7.47
2022-09-10T22:14:08.617Z,7.90
2022-09-10T22:16:36.296Z,7.53
2022-09-10T22:19:07.332Z,6.57
2022-09-10T22:21:38.581Z,5.82
2022-09-10T22:24:06.623Z,5.13
2022-09-10T22:26:34.917Z,4.82
2022-09-10T22:29:03.526Z,4.20
2022-09-10T22:31:33.334Z,4.72
2022-09-10T22:34:07.186Z,4.72
2022-09-10T22:36:39.860Z,4.30
2022-09-10T22:39:13.107Z,4.28
2022-09-10T22:41:41.575Z,4.20
2022-09-10T22:44:09.734Z,4.47
2022-09-10T22:46:38.288Z,3.80
2022-09-10T22:49:06.591Z,3.78
2022-09-10T22:51:37.093Z,4.45
2022-09-10T22:54:06.422Z,3.88
2022-09-10T22:56:36.044Z,3.30
2022-09-10T22:59:05.578Z,3.60
2022-09-10T23:01:37.862Z,4.15
2022-09-10T23:04:06.452Z,3.42
2022-09-10T23:06:36.847Z,3.45
2022-09-10T23:09:11.857Z,4.20
2022-09-10T23:11:41.783Z,3.83
2022-09-10T23:14:13.347Z,4.78
2022-09-10T23:16:43.587Z,4.72
2022-09-10T23:19:17.137Z,5.68
2022-09-10T23:21:46.956Z,5.18
2022-09-10T23:24:16.553Z,5.20
2022-09-10T23:26:44.275Z,5.35
2022-09-10T23:29:13.448Z,4.85
2022-09-10T23:31:42.227Z,5.20
2022-09-10T23:34:18.679Z,4.78
2022-09-10T23:36:48.606Z,4.53
2022-09-10T23:39:20.027Z,3.55
2022-09-10T23:41:52.303Z,4.35
2022-09-10T23:44:20.629Z,4.30
2022-09-10T23:46:48.664Z,4.15
2022-09-10T23:49:16.300Z,3.92
2022-09-10T23:51:49.127Z,4.20
2022-09-10T23:54:18.107Z,4.20
2022-09-10T23:56:45.746Z,3.70
2022-09-10T23:59:13.138Z,3.40
